sensor_id;sensor_type;location;lat;lon;timestamp;temperature;humidity
80254;DHT22;69563;37.974;23.708;2023-07-24T00:02:00;31.80;46.40
80254;DHT22;69563;37.974;23.708;2023-07-24T00:04:30;31.80;46.40
80254;DHT22;69563;37.974;23.708;2023-07-24T00:06:56;31.90;46.50
80254;DHT22;69563;37.974;23.708;2023-07-24T00:09:21;31.80;46.40
80254;DHT22;69563;37.974;23.708;2023-07-24T00:11:47;31.80;46.40
80254;DHT22;69563;37.974;23.708;2023-07-24T00:14:13;31.80;46.40
80254;DHT22;69563;37.974;23.708;2023-07-24T00:16:38;31.80;46.40
80254;DHT22;69563;37.974;23.708;2023-07-24T00:19:04;31.80;46.40
80254;DHT22;69563;37.974;23.708;2023-07-24T00:21:30;31.80;46.50
80254;DHT22;69563;37.974;23.708;2023-07-24T00:23:55;31.80;46.40
80254;DHT22;69563;37.974;23.708;2023-07-24T00:26:21;31.80;46.40
80254;DHT22;69563;37.974;23.708;2023-07-24T00:28:47;31.80;46.30
80254;DHT22;69563;37.974;23.708;2023-07-24T00:31:12;31.80;46.20
80254;DHT22;69563;37.974;23.708;2023-07-24T00:33:38;31.80;46.20
80254;DHT22;69563;37.974;23.708;2023-07-24T00:36:04;31.80;46.10
80254;DHT22;69563;37.974;23.708;2023-07-24T00:38:29;31.80;46.10
80254;DHT22;69563;37.974;23.708;2023-07-24T00:40:57;31.80;46.00
80254;DHT22;69563;37.974;23.708;2023-07-24T00:43:30;31.80;45.80
80254;DHT22;69563;37.974;23.708;2023-07-24T00:45:57;31.80;45.80
80254;DHT22;69563;37.974;23.708;2023-07-24T00:48:23;31.80;45.60
80254;DHT22;69563;37.974;23.708;2023-07-24T00:50:49;31.80;45.50
80254;DHT22;69563;37.974;23.708;2023-07-24T00:53:16;31.80;45.50
80254;DHT22;69563;37.974;23.708;2023-07-24T00:55:42;31.80;45.50
80254;DHT22;69563;37.974;23.708;2023-07-24T00:58:10;31.80;45.50
80254;DHT22;69563;37.974;23.708;2023-07-24T01:00:40;31.80;45.50
80254;DHT22;69563;37.974;23.708;2023-07-24T01:03:06;31.80;45.40
80254;DHT22;69563;37.974;23.708;2023-07-24T01:05:32;31.80;45.40
80254;DHT22;69563;37.974;23.708;2023-07-24T01:07:58;31.80;45.40
80254;DHT22;69563;37.974;23.708;2023-07-24T01:10:24;31.80;44.80
80254;DHT22;69563;37.974;23.708;2023-07-24T01:13:06;31.80;44.60
80254;DHT22;69563;37.974;23.708;2023-07-24T01:15:50;31.80;44.30
80254;DHT22;69563;37.974;23.708;2023-07-24T01:18:19;31.80;44.20
80254;DHT22;69563;37.974;23.708;2023-07-24T01:20:51;31.80;44.00
80254;DHT22;69563;37.974;23.708;2023-07-24T01:23:49;31.80;43.70
80254;DHT22;69563;37.974;23.708;2023-07-24T01:26:21;31.80;43.20
80254;DHT22;69563;37.974;23.708;2023-07-24T01:28:49;31.80;42.60
80254;DHT22;69563;37.974;23.708;2023-07-24T01:31:15;31.80;42.30
80254;DHT22;69563;37.974;23.708;2023-07-24T01:33:42;31.80;42.00
80254;DHT22;69563;37.974;23.708;2023-07-24T01:36:08;31.80;41.20
80254;DHT22;69563;37.974;23.708;2023-07-24T01:38:35;31.80;41.10
80254;DHT22;69563;37.974;23.708;2023-07-24T01:41:03;31.80;40.80
80254;DHT22;69563;37.974;23.708;2023-07-24T01:43:29;31.90;40.80
80254;DHT22;69563;37.974;23.708;2023-07-24T01:45:55;31.80;40.60
80254;DHT22;69563;37.974;23.708;2023-07-24T01:48:24;31.80;40.10
80254;DHT22;69563;37.974;23.708;2023-07-24T01:50:49;31.80;39.90
80254;DHT22;69563;37.974;23.708;2023-07-24T01:53:15;31.80;39.90
80254;DHT22;69563;37.974;23.708;2023-07-24T01:55:41;31.80;39.70
80254;DHT22;69563;37.974;23.708;2023-07-24T01:58:07;31.80;39.60
80254;DHT22;69563;37.974;23.708;2023-07-24T02:00:33;31.80;39.60
80254;DHT22;69563;37.974;23.708;2023-07-24T02:02:58;31.80;39.40
80254;DHT22;69563;37.974;23.708;2023-07-24T02:05:25;31.80;39.40
80254;DHT22;69563;37.974;23.708;2023-07-24T02:07:51;31.80;39.40
80254;DHT22;69563;37.974;23.708;2023-07-24T02:10:16;31.80;39.40
80254;DHT22;69563;37.974;23.708;2023-07-24T02:12:44;31.80;39.50
80254;DHT22;69563;37.974;23.708;2023-07-24T02:15:10;31.80;39.60
80254;DHT22;69563;37.974;23.708;2023-07-24T02:17:36;31.80;39.70
80254;DHT22;69563;37.974;23.708;2023-07-24T02:20:02;31.80;39.70
80254;DHT22;69563;37.974;23.708;2023-07-24T02:22:28;31.80;39.80
80254;DHT22;69563;37.974;23.708;2023-07-24T02:24:56;31.80;39.80
80254;DHT22;69563;37.974;23.708;2023-07-24T02:27:29;31.80;39.90
80254;DHT22;69563;37.974;23.708;2023-07-24T02:29:56;31.80;39.90
80254;DHT22;69563;37.974;23.708;2023-07-24T02:32:22;31.70;40.00
80254;DHT22;69563;37.974;23.708;2023-07-24T02:34:52;31.70;40.20
80254;DHT22;69563;37.974;23.708;2023-07-24T02:37:18;31.70;40.20
80254;DHT22;69563;37.974;23.708;2023-07-24T02:39:43;31.70;40.30
80254;DHT22;69563;37.974;23.708;2023-07-24T02:42:09;31.70;40.40
80254;DHT22;69563;37.974;23.708;2023-07-24T02:44:35;31.70;40.40
80254;DHT22;69563;37.974;23.708;2023-07-24T02:47:01;31.80;40.60
80254;DHT22;69563;37.974;23.708;2023-07-24T02:49:27;31.80;40.60
80254;DHT22;69563;37.974;23.708;2023-07-24T02:51:52;31.70;40.70
80254;DHT22;69563;37.974;23.708;2023-07-24T02:54:18;31.70;40.80
80254;DHT22;69563;37.974;23.708;2023-07-24T02:56:44;31.70;40.90
80254;DHT22;69563;37.974;23.708;2023-07-24T02:59:09;31.70;40.90
80254;DHT22;69563;37.974;23.708;2023-07-24T03:01:36;31.80;41.00
80254;DHT22;69563;37.974;23.708;2023-07-24T03:04:01;31.80;41.00
80254;DHT22;69563;37.974;23.708;2023-07-24T03:06:27;31.80;41.00
80254;DHT22;69563;37.974;23.708;2023-07-24T03:08:53;31.80;41.00
80254;DHT22;69563;37.974;23.708;2023-07-24T03:11:19;31.80;41.10
80254;DHT22;69563;37.974;23.708;2023-07-24T03:13:44;31.80;41.10
80254;DHT22;69563;37.974;23.708;2023-07-24T03:16:10;31.80;41.10
80254;DHT22;69563;37.974;23.708;2023-07-24T03:18:36;31.80;41.10
80254;DHT22;69563;37.974;23.708;2023-07-24T03:21:03;31.80;41.20
80254;DHT22;69563;37.974;23.708;2023-07-24T03:23:28;31.80;41.30
80254;DHT22;69563;37.974;23.708;2023-07-24T03:25:54;31.80;41.20
80254;DHT22;69563;37.974;23.708;2023-07-24T03:28:20;31.80;41.20
80254;DHT22;69563;37.974;23.708;2023-07-24T03:30:46;31.80;41.20
80254;DHT22;69563;37.974;23.708;2023-07-24T03:33:11;31.80;41.10
80254;DHT22;69563;37.974;23.708;2023-07-24T03:35:38;31.80;41.10
80254;DHT22;69563;37.974;23.708;2023-07-24T03:38:05;31.80;41.10
80254;DHT22;69563;37.974;23.708;2023-07-24T03:40:30;31.80;41.10
80254;DHT22;69563;37.974;23.708;2023-07-24T03:42:56;31.80;41.10
80254;DHT22;69563;37.974;23.708;2023-07-24T03:45:22;31.80;41.10
80254;DHT22;69563;37.974;23.708;2023-07-24T03:47:50;31.80;41.10
80254;DHT22;69563;37.974;23.708;2023-07-24T03:50:16;31.80;41.10
80254;DHT22;69563;37.974;23.708;2023-07-24T03:52:42;31.80;41.20
80254;DHT22;69563;37.974;23.708;2023-07-24T03:55:08;31.80;41.30
80254;DHT22;69563;37.974;23.708;2023-07-24T03:57:34;31.80;41.40
80254;DHT22;69563;37.974;23.708;2023-07-24T04:00:00;31.80;41.30
80254;DHT22;69563;37.974;23.708;2023-07-24T04:02:26;31.90;41.50
80254;DHT22;69563;37.974;23.708;2023-07-24T04:04:51;31.90;41.40
80254;DHT22;69563;37.974;23.708;2023-07-24T04:07:17;31.90;41.40
80254;DHT22;69563;37.974;23.708;2023-07-24T04:09:43;31.90;41.30
80254;DHT22;69563;37.974;23.708;2023-07-24T04:12:08;31.90;41.30
80254;DHT22;69563;37.974;23.708;2023-07-24T04:14:34;31.90;41.30
80254;DHT22;69563;37.974;23.708;2023-07-24T04:17:00;31.90;41.20
80254;DHT22;69563;37.974;23.708;2023-07-24T04:19:25;32.00;41.20
80254;DHT22;69563;37.974;23.708;2023-07-24T04:21:51;32.00;41.20
80254;DHT22;69563;37.974;23.708;2023-07-24T04:24:17;32.00;41.20
80254;DHT22;69563;37.974;23.708;2023-07-24T04:26:42;32.00;42.30
80254;DHT22;69563;37.974;23.708;2023-07-24T04:29:08;32.00;42.90
80254;DHT22;69563;37.974;23.708;2023-07-24T04:31:37;32.10;44.10
80254;DHT22;69563;37.974;23.708;2023-07-24T04:34:02;32.10;43.60
80254;DHT22;69563;37.974;23.708;2023-07-24T04:36:28;32.10;43.10
80254;DHT22;69563;37.974;23.708;2023-07-24T04:38:54;32.20;43.20
80254;DHT22;69563;37.974;23.708;2023-07-24T04:41:19;32.20;42.90
80254;DHT22;69563;37.974;23.708;2023-07-24T04:43:45;32.30;42.60
80254;DHT22;69563;37.974;23.708;2023-07-24T04:46:10;32.30;42.30
80254;DHT22;69563;37.974;23.708;2023-07-24T04:48:36;32.30;42.20
80254;DHT22;69563;37.974;23.708;2023-07-24T04:51:02;32.40;42.20
80254;DHT22;69563;37.974;23.708;2023-07-24T04:53:28;32.40;42.10
80254;DHT22;69563;37.974;23.708;2023-07-24T04:55:55;32.40;41.90
80254;DHT22;69563;37.974;23.708;2023-07-24T04:58:21;32.50;41.40
80254;DHT22;69563;37.974;23.708;2023-07-24T05:00:49;32.50;41.00
80254;DHT22;69563;37.974;23.708;2023-07-24T05:03:15;32.60;40.80
80254;DHT22;69563;37.974;23.708;2023-07-24T05:05:42;32.60;39.90
80254;DHT22;69563;37.974;23.708;2023-07-24T05:08:08;32.70;39.90
80254;DHT22;69563;37.974;23.708;2023-07-24T05:10:36;32.70;39.40
80254;DHT22;69563;37.974;23.708;2023-07-24T05:13:02;32.70;38.90
80254;DHT22;69563;37.974;23.708;2023-07-24T05:15:28;32.70;38.70
80254;DHT22;69563;37.974;23.708;2023-07-24T05:17:54;32.80;38.60
80254;DHT22;69563;37.974;23.708;2023-07-24T05:20:19;32.80;38.40
80254;DHT22;69563;37.974;23.708;2023-07-24T05:22:45;32.90;38.30
80254;DHT22;69563;37.974;23.708;2023-07-24T05:25:11;32.90;38.10
80254;DHT22;69563;37.974;23.708;2023-07-24T05:27:36;33.00;39.10
80254;DHT22;69563;37.974;23.708;2023-07-24T05:30:03;32.90;38.00
80254;DHT22;69563;37.974;23.708;2023-07-24T05:32:29;32.90;38.10
80254;DHT22;69563;37.974;23.708;2023-07-24T05:34:55;32.90;38.00
80254;DHT22;69563;37.974;23.708;2023-07-24T05:37:20;32.90;38.20
80254;DHT22;69563;37.974;23.708;2023-07-24T05:39:46;32.80;38.30
80254;DHT22;69563;37.974;23.708;2023-07-24T05:42:12;32.80;38.30
80254;DHT22;69563;37.974;23.708;2023-07-24T05:44:37;32.90;38.30
80254;DHT22;69563;37.974;23.708;2023-07-24T05:47:03;32.90;38.30
80254;DHT22;69563;37.974;23.708;2023-07-24T05:49:29;33.00;38.40
80254;DHT22;69563;37.974;23.708;2023-07-24T05:51:55;33.00;38.40
80254;DHT22;69563;37.974;23.708;2023-07-24T05:54:22;32.90;38.40
80254;DHT22;69563;37.974;23.708;2023-07-24T05:56:48;32.80;38.70
80254;DHT22;69563;37.974;23.708;2023-07-24T05:59:14;32.80;38.80
80254;DHT22;69563;37.974;23.708;2023-07-24T06:01:39;32.80;39.00
80254;DHT22;69563;37.974;23.708;2023-07-24T06:04:05;32.80;39.10
80254;DHT22;69563;37.974;23.708;2023-07-24T06:06:32;32.80;39.00
80254;DHT22;69563;37.974;23.708;2023-07-24T06:08:58;32.80;39.20
80254;DHT22;69563;37.974;23.708;2023-07-24T06:11:24;32.80;39.10
80254;DHT22;69563;37.974;23.708;2023-07-24T06:13:51;32.90;39.10
80254;DHT22;69563;37.974;23.708;2023-07-24T06:16:18;32.90;39.20
80254;DHT22;69563;37.974;23.708;2023-07-24T06:18:44;33.00;39.10
80254;DHT22;69563;37.974;23.708;2023-07-24T06:21:13;33.00;39.00
80254;DHT22;69563;37.974;23.708;2023-07-24T06:23:38;33.00;39.00
80254;DHT22;69563;37.974;23.708;2023-07-24T06:26:07;33.00;39.00
80254;DHT22;69563;37.974;23.708;2023-07-24T06:28:32;33.00;39.00
80254;DHT22;69563;37.974;23.708;2023-07-24T06:30:58;33.00;39.00
80254;DHT22;69563;37.974;23.708;2023-07-24T06:33:24;33.00;39.00
80254;DHT22;69563;37.974;23.708;2023-07-24T06:35:50;33.00;39.10
80254;DHT22;69563;37.974;23.708;2023-07-24T06:38:16;33.00;39.20
80254;DHT22;69563;37.974;23.708;2023-07-24T06:40:42;33.00;39.00
80254;DHT22;69563;37.974;23.708;2023-07-24T06:43:07;33.10;37.60
80254;DHT22;69563;37.974;23.708;2023-07-24T06:45:33;33.20;36.60
80254;DHT22;69563;37.974;23.708;2023-07-24T06:47:59;33.10;37.30
80254;DHT22;69563;37.974;23.708;2023-07-24T06:50:24;33.10;37.60
80254;DHT22;69563;37.974;23.708;2023-07-24T06:52:50;33.10;37.10
80254;DHT22;69563;37.974;23.708;2023-07-24T06:55:17;33.10;37.10
80254;DHT22;69563;37.974;23.708;2023-07-24T06:57:43;33.20;36.70
80254;DHT22;69563;37.974;23.708;2023-07-24T07:00:09;33.20;36.70
80254;DHT22;69563;37.974;23.708;2023-07-24T07:02:41;33.20;37.70
80254;DHT22;69563;37.974;23.708;2023-07-24T07:05:07;33.20;38.30
80254;DHT22;69563;37.974;23.708;2023-07-24T07:07:33;33.20;38.20
80254;DHT22;69563;37.974;23.708;2023-07-24T07:09:58;33.20;38.30
80254;DHT22;69563;37.974;23.708;2023-07-24T07:12:24;33.20;38.30
80254;DHT22;69563;37.974;23.708;2023-07-24T07:14:50;33.20;38.50
80254;DHT22;69563;37.974;23.708;2023-07-24T07:17:15;33.20;38.70
80254;DHT22;69563;37.974;23.708;2023-07-24T07:19:41;33.20;38.50
80254;DHT22;69563;37.974;23.708;2023-07-24T07:22:07;33.20;39.20
80254;DHT22;69563;37.974;23.708;2023-07-24T07:24:32;33.20;38.90
80254;DHT22;69563;37.974;23.708;2023-07-24T07:26:58;33.20;38.60
80254;DHT22;69563;37.974;23.708;2023-07-24T07:29:24;33.20;38.50
80254;DHT22;69563;37.974;23.708;2023-07-24T07:31:49;33.00;38.60
80254;DHT22;69563;37.974;23.708;2023-07-24T07:34:15;33.10;38.70
80254;DHT22;69563;37.974;23.708;2023-07-24T07:36:41;33.20;38.50
80254;DHT22;69563;37.974;23.708;2023-07-24T07:39:07;33.20;38.30
80254;DHT22;69563;37.974;23.708;2023-07-24T07:41:32;33.20;38.10
80254;DHT22;69563;37.974;23.708;2023-07-24T07:43:58;33.20;38.20
80254;DHT22;69563;37.974;23.708;2023-07-24T07:46:24;33.30;38.00
80254;DHT22;69563;37.974;23.708;2023-07-24T07:48:51;33.30;38.00
80254;DHT22;69563;37.974;23.708;2023-07-24T07:51:17;33.30;37.70
80254;DHT22;69563;37.974;23.708;2023-07-24T07:53:42;33.20;37.90
80254;DHT22;69563;37.974;23.708;2023-07-24T07:56:08;33.20;38.10
80254;DHT22;69563;37.974;23.708;2023-07-24T07:58:34;33.20;38.10
80254;DHT22;69563;37.974;23.708;2023-07-24T08:01:04;33.20;38.10
80254;DHT22;69563;37.974;23.708;2023-07-24T08:03:29;33.20;38.10
80254;DHT22;69563;37.974;23.708;2023-07-24T08:05:58;33.20;38.20
80254;DHT22;69563;37.974;23.708;2023-07-24T08:08:24;33.30;38.20
80254;DHT22;69563;37.974;23.708;2023-07-24T08:10:50;33.30;37.90
80254;DHT22;69563;37.974;23.708;2023-07-24T08:13:16;33.40;37.80
80254;DHT22;69563;37.974;23.708;2023-07-24T08:15:41;33.50;37.50
80254;DHT22;69563;37.974;23.708;2023-07-24T08:18:07;33.50;37.60
80254;DHT22;69563;37.974;23.708;2023-07-24T08:20:37;33.50;37.40
80254;DHT22;69563;37.974;23.708;2023-07-24T08:23:04;33.40;37.50
80254;DHT22;69563;37.974;23.708;2023-07-24T08:25:30;33.40;37.50
80254;DHT22;69563;37.974;23.708;2023-07-24T08:27:56;33.40;37.40
80254;DHT22;69563;37.974;23.708;2023-07-24T08:30:22;33.50;37.20
80254;DHT22;69563;37.974;23.708;2023-07-24T08:32:47;33.50;36.80
80254;DHT22;69563;37.974;23.708;2023-07-24T08:35:15;33.50;36.00
80254;DHT22;69563;37.974;23.708;2023-07-24T08:37:44;33.30;35.70
80254;DHT22;69563;37.974;23.708;2023-07-24T08:40:10;33.20;35.70
80254;DHT22;69563;37.974;23.708;2023-07-24T08:42:39;33.30;35.60
80254;DHT22;69563;37.974;23.708;2023-07-24T08:45:11;33.30;35.10
80254;DHT22;69563;37.974;23.708;2023-07-24T08:47:45;33.40;34.70
80254;DHT22;69563;37.974;23.708;2023-07-24T08:50:11;33.40;34.50
80254;DHT22;69563;37.974;23.708;2023-07-24T08:52:40;33.40;34.10
80254;DHT22;69563;37.974;23.708;2023-07-24T08:55:08;33.40;34.10
80254;DHT22;69563;37.974;23.708;2023-07-24T08:57:34;33.40;34.00
80254;DHT22;69563;37.974;23.708;2023-07-24T09:00:01;33.40;34.00
80254;DHT22;69563;37.974;23.708;2023-07-24T09:02:31;33.40;33.90
80254;DHT22;69563;37.974;23.708;2023-07-24T09:04:57;33.50;34.00
80254;DHT22;69563;37.974;23.708;2023-07-24T09:07:23;33.50;33.90
80254;DHT22;69563;37.974;23.708;2023-07-24T09:09:49;33.50;33.70
80254;DHT22;69563;37.974;23.708;2023-07-24T09:12:15;33.50;33.80
80254;DHT22;69563;37.974;23.708;2023-07-24T09:14:41;33.60;33.70
80254;DHT22;69563;37.974;23.708;2023-07-24T09:17:10;33.60;34.60
80254;DHT22;69563;37.974;23.708;2023-07-24T09:19:37;33.60;33.80
80254;DHT22;69563;37.974;23.708;2023-07-24T09:24:36;33.50;34.90
80254;DHT22;69563;37.974;23.708;2023-07-24T09:27:06;33.50;33.70
80254;DHT22;69563;37.974;23.708;2023-07-24T09:29:33;33.50;33.60
80254;DHT22;69563;37.974;23.708;2023-07-24T09:32:00;33.50;33.30
80254;DHT22;69563;37.974;23.708;2023-07-24T09:34:25;33.50;33.30
80254;DHT22;69563;37.974;23.708;2023-07-24T09:36:51;33.50;33.20
80254;DHT22;69563;37.974;23.708;2023-07-24T09:39:27;33.50;33.00
80254;DHT22;69563;37.974;23.708;2023-07-24T09:41:53;33.60;33.00
80254;DHT22;69563;37.974;23.708;2023-07-24T09:44:20;33.50;32.90
80254;DHT22;69563;37.974;23.708;2023-07-24T09:46:46;33.50;32.70
80254;DHT22;69563;37.974;23.708;2023-07-24T09:49:12;33.50;32.70
80254;DHT22;69563;37.974;23.708;2023-07-24T09:51:42;33.50;32.60
80254;DHT22;69563;37.974;23.708;2023-07-24T09:54:15;33.60;32.60
80254;DHT22;69563;37.974;23.708;2023-07-24T09:56:43;33.60;32.50
80254;DHT22;69563;37.974;23.708;2023-07-24T09:59:09;33.60;32.40
80254;DHT22;69563;37.974;23.708;2023-07-24T10:01:37;33.60;32.40
80254;DHT22;69563;37.974;23.708;2023-07-24T10:04:03;33.60;33.40
80254;DHT22;69563;37.974;23.708;2023-07-24T10:06:29;33.50;32.50
80254;DHT22;69563;37.974;23.708;2023-07-24T10:08:56;33.50;32.50
80254;DHT22;69563;37.974;23.708;2023-07-24T10:11:22;33.50;32.50
80254;DHT22;69563;37.974;23.708;2023-07-24T10:13:49;33.50;32.60
80254;DHT22;69563;37.974;23.708;2023-07-24T10:16:16;33.50;32.50
80254;DHT22;69563;37.974;23.708;2023-07-24T10:18:44;33.50;32.40
80254;DHT22;69563;37.974;23.708;2023-07-24T10:21:11;33.60;32.30
80254;DHT22;69563;37.974;23.708;2023-07-24T10:23:45;33.50;32.30
80254;DHT22;69563;37.974;23.708;2023-07-24T10:26:14;33.50;32.40
80254;DHT22;69563;37.974;23.708;2023-07-24T10:28:47;33.50;32.40
80254;DHT22;69563;37.974;23.708;2023-07-24T10:31:22;33.60;32.40
80254;DHT22;69563;37.974;23.708;2023-07-24T10:33:49;33.70;32.30
80254;DHT22;69563;37.974;23.708;2023-07-24T10:36:20;33.70;32.30
80254;DHT22;69563;37.974;23.708;2023-07-24T10:38:47;33.70;32.20
80254;DHT22;69563;37.974;23.708;2023-07-24T10:41:17;33.70;32.10
80254;DHT22;69563;37.974;23.708;2023-07-24T10:43:45;33.80;32.20
80254;DHT22;69563;37.974;23.708;2023-07-24T10:46:11;33.70;32.30
80254;DHT22;69563;37.974;23.708;2023-07-24T10:48:41;33.60;32.20
80254;DHT22;69563;37.974;23.708;2023-07-24T10:51:08;33.50;32.20
80254;DHT22;69563;37.974;23.708;2023-07-24T10:53:43;33.50;32.50
80254;DHT22;69563;37.974;23.708;2023-07-24T10:56:09;33.50;32.30
80254;DHT22;69563;37.974;23.708;2023-07-24T10:58:35;33.50;32.40
80254;DHT22;69563;37.974;23.708;2023-07-24T11:01:04;33.50;32.50
80254;DHT22;69563;37.974;23.708;2023-07-24T11:03:30;33.60;32.50
80254;DHT22;69563;37.974;23.708;2023-07-24T11:05:57;33.60;32.50
80254;DHT22;69563;37.974;23.708;2023-07-24T11:08:23;33.70;32.50
80254;DHT22;69563;37.974;23.708;2023-07-24T11:10:51;33.60;32.60
80254;DHT22;69563;37.974;23.708;2023-07-24T11:13:19;33.60;32.70
80254;DHT22;69563;37.974;23.708;2023-07-24T11:15:46;33.50;32.80
80254;DHT22;69563;37.974;23.708;2023-07-24T11:18:13;33.50;32.20
80254;DHT22;69563;37.974;23.708;2023-07-24T11:23:10;33.40;32.60
80254;DHT22;69563;37.974;23.708;2023-07-24T11:25:36;33.50;32.70
80254;DHT22;69563;37.974;23.708;2023-07-24T11:28:02;33.50;32.60
80254;DHT22;69563;37.974;23.708;2023-07-24T11:30:30;33.50;32.60
80254;DHT22;69563;37.974;23.708;2023-07-24T11:33:00;33.50;32.60
80254;DHT22;69563;37.974;23.708;2023-07-24T11:35:26;33.40;33.00
80254;DHT22;69563;37.974;23.708;2023-07-24T11:37:52;33.40;33.00
80254;DHT22;69563;37.974;23.708;2023-07-24T11:40:18;33.50;32.60
80254;DHT22;69563;37.974;23.708;2023-07-24T11:42:48;33.60;32.30
80254;DHT22;69563;37.974;23.708;2023-07-24T11:45:14;33.70;32.40
80254;DHT22;69563;37.974;23.708;2023-07-24T11:47:48;33.60;32.70
80254;DHT22;69563;37.974;23.708;2023-07-24T11:50:15;33.60;32.60
80254;DHT22;69563;37.974;23.708;2023-07-24T11:52:45;33.60;32.60
80254;DHT22;69563;37.974;23.708;2023-07-24T11:55:12;33.50;32.90
80254;DHT22;69563;37.974;23.708;2023-07-24T11:57:38;33.50;32.60
80254;DHT22;69563;37.974;23.708;2023-07-24T12:00:06;33.40;33.20
80254;DHT22;69563;37.974;23.708;2023-07-24T12:02:34;33.30;33.40
80254;DHT22;69563;37.974;23.708;2023-07-24T12:05:04;33.30;33.20
80254;DHT22;69563;37.974;23.708;2023-07-24T12:07:35;33.30;33.10
80254;DHT22;69563;37.974;23.708;2023-07-24T12:10:03;33.30;33.00
80254;DHT22;69563;37.974;23.708;2023-07-24T12:12:44;33.30;33.20
80254;DHT22;69563;37.974;23.708;2023-07-24T12:15:11;33.20;33.20
80254;DHT22;69563;37.974;23.708;2023-07-24T12:17:39;33.20;33.40
80254;DHT22;69563;37.974;23.708;2023-07-24T12:20:09;33.30;33.10
80254;DHT22;69563;37.974;23.708;2023-07-24T12:22:38;33.30;32.80
80254;DHT22;69563;37.974;23.708;2023-07-24T12:25:05;33.30;32.90
80254;DHT22;69563;37.974;23.708;2023-07-24T12:27:31;33.20;33.10
80254;DHT22;69563;37.974;23.708;2023-07-24T12:29:57;33.20;33.30
80254;DHT22;69563;37.974;23.708;2023-07-24T12:32:24;33.10;33.40
80254;DHT22;69563;37.974;23.708;2023-07-24T12:34:51;33.10;33.50
80254;DHT22;69563;37.974;23.708;2023-07-24T12:37:17;33.10;33.30
80254;DHT22;69563;37.974;23.708;2023-07-24T12:39:45;33.00;33.50
80254;DHT22;69563;37.974;23.708;2023-07-24T12:42:11;32.90;33.80
80254;DHT22;69563;37.974;23.708;2023-07-24T12:44:37;32.80;34.00
80254;DHT22;69563;37.974;23.708;2023-07-24T12:47:04;32.80;34.30
80254;DHT22;69563;37.974;23.708;2023-07-24T12:49:30;32.70;34.30
80254;DHT22;69563;37.974;23.708;2023-07-24T12:51:56;32.50;34.50
80254;DHT22;69563;37.974;23.708;2023-07-24T12:54:22;32.40;34.90
80254;DHT22;69563;37.974;23.708;2023-07-24T12:56:49;32.20;35.30
80254;DHT22;69563;37.974;23.708;2023-07-24T12:59:15;32.20;35.50
80254;DHT22;69563;37.974;23.708;2023-07-24T13:01:40;32.20;35.50
80254;DHT22;69563;37.974;23.708;2023-07-24T13:04:07;32.20;35.60
80254;DHT22;69563;37.974;23.708;2023-07-24T13:06:33;32.20;35.70
80254;DHT22;69563;37.974;23.708;2023-07-24T13:08:59;32.20;35.80
80254;DHT22;69563;37.974;23.708;2023-07-24T13:11:25;32.10;35.90
80254;DHT22;69563;37.974;23.708;2023-07-24T13:13:53;32.00;35.90
80254;DHT22;69563;37.974;23.708;2023-07-24T13:16:19;32.00;36.00
80254;DHT22;69563;37.974;23.708;2023-07-24T13:18:45;32.00;36.10
80254;DHT22;69563;37.974;23.708;2023-07-24T13:21:12;31.90;36.20
80254;DHT22;69563;37.974;23.708;2023-07-24T13:23:40;31.90;36.20
80254;DHT22;69563;37.974;23.708;2023-07-24T13:26:05;31.80;36.20
80254;DHT22;69563;37.974;23.708;2023-07-24T13:28:33;31.80;36.40
80254;DHT22;69563;37.974;23.708;2023-07-24T13:30:58;31.80;36.50
80254;DHT22;69563;37.974;23.708;2023-07-24T13:33:24;31.80;36.60
80254;DHT22;69563;37.974;23.708;2023-07-24T13:35:50;31.70;36.60
80254;DHT22;69563;37.974;23.708;2023-07-24T13:38:18;31.70;36.80
80254;DHT22;69563;37.974;23.708;2023-07-24T13:40:47;31.70;36.80
80254;DHT22;69563;37.974;23.708;2023-07-24T13:43:12;31.60;36.90
80254;DHT22;69563;37.974;23.708;2023-07-24T13:45:41;31.60;36.90
80254;DHT22;69563;37.974;23.708;2023-07-24T13:48:09;31.60;36.90
80254;DHT22;69563;37.974;23.708;2023-07-24T13:50:35;31.60;37.00
80254;DHT22;69563;37.974;23.708;2023-07-24T13:53:00;31.60;37.00
80254;DHT22;69563;37.974;23.708;2023-07-24T13:55:26;31.60;37.10
80254;DHT22;69563;37.974;23.708;2023-07-24T13:57:52;31.60;37.00
80254;DHT22;69563;37.974;23.708;2023-07-24T14:00:17;31.50;37.40
80254;DHT22;69563;37.974;23.708;2023-07-24T14:02:43;31.50;37.10
80254;DHT22;69563;37.974;23.708;2023-07-24T14:05:09;31.50;36.80
80254;DHT22;69563;37.974;23.708;2023-07-24T14:07:34;31.60;36.90
80254;DHT22;69563;37.974;23.708;2023-07-24T14:10:03;31.60;36.90
80254;DHT22;69563;37.974;23.708;2023-07-24T14:12:28;31.60;36.90
80254;DHT22;69563;37.974;23.708;2023-07-24T14:14:54;31.60;36.90
80254;DHT22;69563;37.974;23.708;2023-07-24T14:17:20;31.60;37.00
80254;DHT22;69563;37.974;23.708;2023-07-24T14:19:45;31.50;37.10
80254;DHT22;69563;37.974;23.708;2023-07-24T14:22:11;31.50;37.10
80254;DHT22;69563;37.974;23.708;2023-07-24T14:24:37;31.50;37.30
80254;DHT22;69563;37.974;23.708;2023-07-24T14:27:02;31.50;37.20
80254;DHT22;69563;37.974;23.708;2023-07-24T14:29:28;31.50;38.20
80254;DHT22;69563;37.974;23.708;2023-07-24T14:31:54;31.50;37.30
80254;DHT22;69563;37.974;23.708;2023-07-24T14:34:19;31.40;37.40
80254;DHT22;69563;37.974;23.708;2023-07-24T14:36:45;31.40;37.50
80254;DHT22;69563;37.974;23.708;2023-07-24T14:39:11;31.50;37.60
80254;DHT22;69563;37.974;23.708;2023-07-24T14:41:36;31.50;37.60
80254;DHT22;69563;37.974;23.708;2023-07-24T14:44:02;31.50;37.60
80254;DHT22;69563;37.974;23.708;2023-07-24T14:46:28;31.40;37.80
80254;DHT22;69563;37.974;23.708;2023-07-24T14:48:53;31.40;37.90
80254;DHT22;69563;37.974;23.708;2023-07-24T14:51:19;31.40;38.00
80254;DHT22;69563;37.974;23.708;2023-07-24T14:53:45;31.50;38.00
80254;DHT22;69563;37.974;23.708;2023-07-24T14:56:11;31.50;38.00
80254;DHT22;69563;37.974;23.708;2023-07-24T14:58:36;31.40;38.10
80254;DHT22;69563;37.974;23.708;2023-07-24T15:01:05;31.40;38.20
80254;DHT22;69563;37.974;23.708;2023-07-24T15:03:30;31.40;38.30
80254;DHT22;69563;37.974;23.708;2023-07-24T15:05:56;31.40;38.40
80254;DHT22;69563;37.974;23.708;2023-07-24T15:08:22;31.40;38.40
80254;DHT22;69563;37.974;23.708;2023-07-24T15:10:50;31.40;38.40
80254;DHT22;69563;37.974;23.708;2023-07-24T15:13:16;31.40;38.40
80254;DHT22;69563;37.974;23.708;2023-07-24T15:15:41;31.40;38.40
80254;DHT22;69563;37.974;23.708;2023-07-24T15:18:07;31.40;38.40